createdAt,value
2022-11-17T00:02:47.550Z,20.20
2022-11-17T00:05:45.260Z,19.60
2022-11-17T00:08:42.101Z,20.00
2022-11-17T00:11:57.645Z,19.40
2022-11-17T00:14:56.545Z,22.40
2022-11-17T00:18:15.688Z,21.40
2022-11-17T00:21:23.741Z,18.80
2022-11-17T00:24:23.733Z,19.00
2022-11-17T00:27:21.471Z,21.60
2022-11-17T00:30:36.780Z,21.20
2022-11-17T00:34:01.547Z,21.00
2022-11-17T00:36:58.257Z,15.80
2022-11-17T00:40:00.556Z,22.80
2022-11-17T00:42:58.585Z,20.60
2022-11-17T00:45:55.224Z,20.60
2022-11-17T00:48:52.365Z,15.20
2022-11-17T00:51:49.626Z,20.40
2022-11-17T00:54:46.223Z,18.80
2022-11-17T00:57:43.476Z,19.00
2022-11-17T01:00:40.473Z,22.60
2022-11-17T01:03:37.872Z,17.80
2022-11-17T01:06:40.152Z,20.40
2022-11-17T01:09:37.254Z,14.60
2022-11-17T01:12:34.261Z,16.00
2022-11-17T01:15:31.373Z,20.40
2022-11-17T01:18:28.493Z,16.80
2022-11-17T01:21:25.908Z,18.20
2022-11-17T01:24:23.597Z,15.00
2022-11-17T01:27:20.089Z,18.20
2022-11-17T01:30:18.269Z,14.80
2022-11-17T01:33:15.278Z,16.80
2022-11-17T01:36:20.642Z,18.00
2022-11-17T01:39:17.312Z,16.20
2022-11-17T01:42:16.075Z,17.40
2022-11-17T01:45:16.429Z,18.00
2022-11-17T01:48:13.462Z,15.20
2022-11-17T01:51:11.388Z,14.00
2022-11-17T01:54:08.224Z,14.80
2022-11-17T01:57:07.761Z,14.80
2022-11-17T02:00:07.514Z,15.60
2022-11-17T02:03:07.505Z,17.40
2022-11-17T02:06:33.374Z,14.60
2022-11-17T02:09:30.111Z,18.40
2022-11-17T02:12:27.201Z,14.20
2022-11-17T02:15:24.370Z,14.00
2022-11-17T02:18:20.997Z,16.20
2022-11-17T02:21:20.903Z,14.00
2022-11-17T02:24:21.063Z,12.40
2022-11-17T02:27:27.091Z,14.40
2022-11-17T02:30:24.233Z,12.40
2022-11-17T02:33:55.879Z,16.60
2022-11-17T02:37:13.528Z,12.20
2022-11-17T02:40:14.791Z,14.00
2022-11-17T02:43:38.638Z,15.20
2022-11-17T02:46:48.066Z,15.00
2022-11-17T02:49:48.024Z,12.00
2022-11-17T02:52:45.316Z,17.20
2022-11-17T02:55:51.896Z,16.00
2022-11-17T02:58:51.007Z,14.00
2022-11-17T03:02:10.778Z,11.60
2022-11-17T03:05:15.797Z,12.00
2022-11-17T03:08:33.177Z,14.00
2022-11-17T03:11:45.004Z,17.40
2022-11-17T03:15:04.865Z,11.60
2022-11-17T03:18:44.447Z,11.80
2022-11-17T03:21:44.783Z,14.60
2022-11-17T03:24:44.426Z,11.60
2022-11-17T03:27:45.224Z,11.00
2022-11-17T03:30:43.393Z,13.40
2022-11-17T03:33:40.701Z,18.00
2022-11-17T03:36:38.727Z,16.80
2022-11-17T03:39:44.110Z,15.00
2022-11-17T03:42:43.186Z,14.00
2022-11-17T03:45:46.855Z,12.20
2022-11-17T03:49:09.602Z,13.80
2022-11-17T03:52:07.173Z,14.00
2022-11-17T03:55:04.238Z,12.20
2022-11-17T03:58:05.238Z,12.60
2022-11-17T04:01:02.817Z,14.20
2022-11-17T04:04:00.360Z,14.20
2022-11-17T04:06:57.550Z,14.60
2022-11-17T04:09:54.369Z,13.40
2022-11-17T04:13:10.008Z,14.20
2022-11-17T04:16:07.886Z,16.60
2022-11-17T04:19:05.803Z,14.00
2022-11-17T04:22:03.433Z,16.60
2022-11-17T04:25:00.139Z,16.80
2022-11-17T04:28:16.306Z,14.20
2022-11-17T04:31:16.719Z,15.20
2022-11-17T04:34:13.780Z,15.00
2022-11-17T04:37:17.555Z,15.40
2022-11-17T04:40:14.792Z,15.00
2022-11-17T04:43:12.156Z,14.20
2022-11-17T04:46:09.743Z,17.20
2022-11-17T04:49:06.684Z,12.80
2022-11-17T04:52:03.653Z,13.20
2022-11-17T04:55:00.285Z,15.20
2022-11-17T04:57:57.341Z,14.00
2022-11-17T05:00:54.626Z,14.00
2022-11-17T05:03:53.076Z,14.00
2022-11-17T05:06:50.300Z,15.20
2022-11-17T05:09:47.319Z,10.80
2022-11-17T05:13:03.292Z,13.60
2022-11-17T05:16:18.966Z,14.00
2022-11-17T05:19:21.441Z,13.00
2022-11-17T05:22:40.124Z,13.00
2022-11-17T05:25:37.356Z,15.20
2022-11-17T05:28:34.597Z,10.00
2022-11-17T05:31:31.740Z,13.80
2022-11-17T05:34:28.610Z,13.40
2022-11-17T05:37:25.797Z,10.80
2022-11-17T05:40:22.483Z,13.20
2022-11-17T05:43:19.410Z,13.40
2022-11-17T05:46:19.949Z,13.20
2022-11-17T05:49:17.672Z,13.00
2022-11-17T05:52:14.445Z,10.60
2022-11-17T05:55:11.620Z,13.20
2022-11-17T05:58:17.084Z,11.20
2022-11-17T06:01:14.524Z,13.20
2022-11-17T06:04:13.006Z,13.00
2022-11-17T06:07:10.327Z,10.00
2022-11-17T06:10:07.264Z,10.60
2022-11-17T06:13:04.370Z,7.00
2022-11-17T06:16:03.497Z,11.00
2022-11-17T06:19:03.949Z,11.00
2022-11-17T06:22:16.848Z,8.80
2022-11-17T06:25:14.266Z,10.00
2022-11-17T06:28:14.021Z,8.40
2022-11-17T06:31:11.584Z,10.00
2022-11-17T06:34:08.602Z,11.00
2022-11-17T06:37:05.638Z,9.60
2022-11-17T06:40:02.636Z,7.60
2022-11-17T06:43:09.403Z,10.40
2022-11-17T06:46:06.522Z,8.40
2022-11-17T06:49:09.955Z,10.00
2022-11-17T06:52:07.577Z,8.00
2022-11-17T06:55:04.863Z,10.20
2022-11-17T06:58:06.640Z,10.40
2022-11-17T07:01:08.022Z,6.20
2022-11-17T07:04:05.429Z,7.80
2022-11-17T07:07:02.820Z,8.00
2022-11-17T07:10:00.542Z,8.00
2022-11-17T07:12:57.780Z,10.00
2022-11-17T07:15:54.495Z,10.00
2022-11-17T07:18:52.580Z,10.00
2022-11-17T07:21:49.861Z,5.40
2022-11-17T07:24:47.784Z,9.20
2022-11-17T07:27:44.536Z,11.00
2022-11-17T07:30:41.525Z,7.60
2022-11-17T07:33:38.708Z,11.00
2022-11-17T07:36:35.530Z,11.00
2022-11-17T07:39:32.442Z,10.40
2022-11-17T07:42:29.443Z,10.00
2022-11-17T07:45:31.847Z,7.00
2022-11-17T07:48:29.449Z,8.40
2022-11-17T07:51:26.535Z,10.00
2022-11-17T07:54:23.427Z,8.00
2022-11-17T07:57:21.501Z,11.00
2022-11-17T08:00:18.568Z,8.00
2022-11-17T08:03:15.695Z,9.20
2022-11-17T08:06:12.957Z,7.00
2022-11-17T08:09:13.460Z,7.00
2022-11-17T08:12:10.499Z,5.00
2022-11-17T08:15:08.146Z,10.00
2022-11-17T08:18:06.291Z,7.80
2022-11-17T08:21:11.401Z,7.00
2022-11-17T08:24:09.377Z,10.00
2022-11-17T08:27:06.648Z,7.60
2022-11-17T08:30:04.270Z,8.00
2022-11-17T08:33:01.849Z,9.60
2022-11-17T08:35:59.172Z,7.20
2022-11-17T08:38:56.806Z,10.00
2022-11-17T08:41:55.162Z,8.00
2022-11-17T08:44:52.789Z,8.40
2022-11-17T08:47:49.823Z,7.00
2022-11-17T08:50:46.771Z,8.80
2022-11-17T08:53:43.872Z,9.60
2022-11-17T08:56:40.706Z,5.00
2022-11-17T08:59:37.467Z,7.60
2022-11-17T09:02:34.317Z,7.00
2022-11-17T09:05:31.540Z,7.00
2022-11-17T09:08:56.294Z,4.60
2022-11-17T09:11:45.775Z,8.00
2022-11-17T09:14:42.812Z,7.80
2022-11-17T09:17:40.393Z,7.80
2022-11-17T09:20:42.756Z,5.00
2022-11-17T09:23:42.750Z,8.00
2022-11-17T09:26:43.071Z,7.00
2022-11-17T09:29:40.749Z,7.60
2022-11-17T09:32:37.642Z,6.20
2022-11-17T09:35:34.817Z,5.00
2022-11-17T09:38:31.827Z,7.60
2022-11-17T09:41:36.220Z,7.20
2022-11-17T09:44:40.377Z,7.80
2022-11-17T09:47:41.581Z,8.40
2022-11-17T09:50:41.744Z,7.40
2022-11-17T09:53:49.785Z,7.00
2022-11-17T09:56:46.829Z,8.00
2022-11-17T09:59:43.946Z,8.00
2022-11-17T10:02:44.148Z,7.60
2022-11-17T10:05:41.768Z,9.60
2022-11-17T10:08:51.717Z,10.00
2022-11-17T10:11:49.078Z,8.40
2022-11-17T10:14:48.805Z,5.00
2022-11-17T10:17:45.815Z,7.00
2022-11-17T10:20:43.249Z,8.00
2022-11-17T10:23:47.124Z,8.00
2022-11-17T10:26:48.262Z,8.00
2022-11-17T10:30:19.216Z,6.60
2022-11-17T10:33:18.179Z,8.00
2022-11-17T10:36:23.798Z,10.00
2022-11-17T10:39:35.923Z,7.80
2022-11-17T10:42:32.847Z,8.00
2022-11-17T10:45:30.050Z,9.20
2022-11-17T10:48:38.181Z,8.00
2022-11-17T10:51:35.901Z,10.20
2022-11-17T10:54:32.804Z,9.40
2022-11-17T10:57:29.765Z,8.40
2022-11-17T11:00:31.550Z,11.00
2022-11-17T11:03:30.705Z,5.80
2022-11-17T11:06:34.242Z,8.40
2022-11-17T11:09:31.431Z,7.00
2022-11-17T11:12:36.257Z,10.00
2022-11-17T11:15:35.110Z,7.00
2022-11-17T11:18:33.892Z,7.40
2022-11-17T11:21:45.158Z,8.00
2022-11-17T11:24:56.107Z,6.20
2022-11-17T11:28:31.614Z,10.00
2022-11-17T11:31:40.463Z,8.40
2022-11-17T11:34:37.291Z,7.80
2022-11-17T11:37:39.109Z,7.60
2022-11-17T11:40:38.664Z,10.00
2022-11-17T11:43:45.664Z,7.40
2022-11-17T11:46:51.607Z,5.40
2022-11-17T11:50:00.324Z,7.80
2022-11-17T11:53:07.714Z,7.80
2022-11-17T11:56:09.701Z,7.80
2022-11-17T11:59:14.935Z,5.80
2022-11-17T12:02:11.624Z,7.00
2022-11-17T12:05:30.360Z,7.00
2022-11-17T12:08:38.300Z,4.20
2022-11-17T12:11:54.479Z,5.00
2022-11-17T12:15:12.085Z,5.80
2022-11-17T12:18:18.469Z,7.80
2022-11-17T12:21:23.253Z,6.60
2022-11-17T12:24:36.282Z,7.60
2022-11-17T12:27:33.840Z,7.00
2022-11-17T12:30:30.847Z,8.00
2022-11-17T12:33:53.640Z,8.00
2022-11-17T12:37:15.095Z,7.40
2022-11-17T12:40:44.025Z,9.00
2022-11-17T12:43:40.646Z,5.00
2022-11-17T12:46:37.789Z,7.40
2022-11-17T12:49:40.008Z,8.00
2022-11-17T12:52:59.228Z,7.00
2022-11-17T12:56:02.480Z,4.00
2022-11-17T12:59:26.768Z,8.40
2022-11-17T13:02:54.567Z,16.25
2022-11-17T13:06:38.839Z,8.40
2022-11-17T13:09:30.444Z,8.80
2022-11-17T13:12:32.475Z,7.60
2022-11-17T13:15:30.175Z,8.60
2022-11-17T13:18:33.085Z,7.00
2022-11-17T13:21:31.146Z,7.60
2022-11-17T13:24:36.493Z,7.00
2022-11-17T13:27:33.858Z,7.60
2022-11-17T13:30:31.523Z,7.20
2022-11-17T13:33:29.659Z,7.20
2022-11-17T13:36:27.332Z,7.40
2022-11-17T13:39:27.895Z,8.00
2022-11-17T13:42:27.499Z,7.00
2022-11-17T13:45:24.861Z,6.20
2022-11-17T13:48:44.826Z,18.60
2022-11-17T13:51:42.275Z,14.00
2022-11-17T13:54:43.687Z,12.00
2022-11-17T13:57:40.825Z,23.00
2022-11-17T14:00:37.922Z,14.00
2022-11-17T14:03:35.728Z,12.60
2022-11-17T14:07:00.707Z,9.80
2022-11-17T14:10:19.736Z,8.40
2022-11-17T14:13:22.848Z,7.80
2022-11-17T14:16:24.990Z,9.40
2022-11-17T14:19:34.339Z,10.20
2022-11-17T14:22:32.113Z,9.80
2022-11-17T14:25:29.605Z,5.00
2022-11-17T14:28:27.382Z,14.60
2022-11-17T14:31:24.572Z,12.00
2022-11-17T14:34:22.036Z,8.00
2022-11-17T14:37:19.597Z,15.80
2022-11-17T14:40:17.960Z,11.00
2022-11-17T14:43:14.811Z,15.00
2022-11-17T14:46:25.536Z,14.00
2022-11-17T14:49:23.139Z,10.80
2022-11-17T14:52:19.737Z,12.40
2022-11-17T14:55:17.202Z,14.00
2022-11-17T14:58:15.214Z,15.00
2022-11-17T15:01:24.494Z,11.00
2022-11-17T15:04:48.817Z,9.20
2022-11-17T15:07:39.012Z,10.40
2022-11-17T15:10:35.944Z,9.00
2022-11-17T15:13:33.130Z,11.80
2022-11-17T15:16:29.966Z,12.00
2022-11-17T15:19:26.934Z,14.00
2022-11-17T15:22:25.397Z,16.20
2022-11-17T15:25:22.889Z,21.20
2022-11-17T15:28:23.015Z,13.80
2022-11-17T15:31:21.024Z,11.00
2022-11-17T15:34:20.446Z,10.00
2022-11-17T15:37:17.920Z,9.20
2022-11-17T15:40:19.198Z,10.00
2022-11-17T15:43:16.534Z,20.20
2022-11-17T15:46:18.183Z,14.00
2022-11-17T15:49:15.594Z,11.00
2022-11-17T15:52:13.240Z,7.60
2022-11-17T15:55:11.171Z,15.60
2022-11-17T15:58:08.130Z,9.60
2022-11-17T16:01:13.089Z,8.00
2022-11-17T16:04:11.534Z,10.80
2022-11-17T16:07:08.894Z,10.20
2022-11-17T16:10:06.186Z,11.20
2022-11-17T16:13:03.249Z,15.00
2022-11-17T16:16:00.157Z,19.20
2022-11-17T16:18:57.221Z,10.60
2022-11-17T16:21:54.127Z,17.00
2022-11-17T16:24:50.946Z,20.00
2022-11-17T16:27:47.926Z,17.20
2022-11-17T16:30:45.302Z,11.00
2022-11-17T16:33:53.340Z,15.00
2022-11-17T16:36:50.817Z,11.80
2022-11-17T16:39:47.772Z,15.00
2022-11-17T16:42:45.728Z,11.00
2022-11-17T16:45:45.959Z,17.80
2022-11-17T16:48:42.736Z,12.00
2022-11-17T16:51:40.247Z,10.40
2022-11-17T16:54:37.475Z,9.00
2022-11-17T16:57:35.127Z,13.20
2022-11-17T17:00:32.410Z,15.00
2022-11-17T17:03:29.983Z,9.40
2022-11-17T17:06:27.194Z,11.60
2022-11-17T17:09:27.846Z,14.00
2022-11-17T17:12:24.878Z,12.20
2022-11-17T17:15:21.857Z,10.80
2022-11-17T17:18:19.982Z,12.00
2022-11-17T17:21:18.386Z,9.80
2022-11-17T17:24:16.061Z,23.80
2022-11-17T17:27:13.387Z,31.50
2022-11-17T17:30:11.806Z,29.00
2022-11-17T17:33:09.029Z,16.40
2022-11-17T17:36:06.710Z,11.00
2022-11-17T17:39:04.567Z,18.40
2022-11-17T17:42:02.047Z,11.00
2022-11-17T17:44:59.016Z,36.50
2022-11-17T17:47:56.036Z,19.60
2022-11-17T17:50:54.044Z,33.75
2022-11-17T17:53:55.902Z,11.00
2022-11-17T17:56:52.911Z,21.40
2022-11-17T17:59:50.024Z,26.00
2022-11-17T18:02:48.140Z,21.00
2022-11-17T18:05:46.292Z,15.80
2022-11-17T18:08:44.517Z,19.00
2022-11-17T18:11:46.076Z,21.60
2022-11-17T18:14:43.717Z,14.40
2022-11-17T18:17:40.877Z,37.50
2022-11-17T18:20:37.778Z,31.00
2022-11-17T18:23:35.508Z,15.00
2022-11-17T18:26:34.220Z,25.80
2022-11-17T18:29:31.194Z,16.00
2022-11-17T18:32:28.217Z,22.80
2022-11-17T18:35:24.947Z,12.00
2022-11-17T18:38:22.051Z,21.60
2022-11-17T18:41:19.290Z,23.80
2022-11-17T18:44:17.125Z,24.80
2022-11-17T18:47:14.200Z,22.00
2022-11-17T18:50:11.186Z,17.60
2022-11-17T18:53:07.993Z,21.60
2022-11-17T18:56:08.001Z,28.20
2022-11-17T18:59:11.287Z,18.40
2022-11-17T19:02:09.036Z,15.40
2022-11-17T19:05:06.637Z,20.80
2022-11-17T19:08:04.433Z,16.80
2022-11-17T19:11:06.039Z,25.00
2022-11-17T19:14:05.353Z,25.20
2022-11-17T19:17:02.787Z,16.20
2022-11-17T19:20:00.235Z,14.80
2022-11-17T19:22:57.126Z,15.00
2022-11-17T19:25:54.394Z,17.60
2022-11-17T19:28:54.320Z,17.40
2022-11-17T19:31:52.691Z,14.00
2022-11-17T19:34:51.009Z,15.40
2022-11-17T19:37:48.961Z,18.20
2022-11-17T19:40:46.075Z,19.20
2022-11-17T19:43:45.505Z,16.00
2022-11-17T19:46:43.328Z,18.80
2022-11-17T19:49:40.314Z,18.80
2022-11-17T19:52:37.144Z,19.20
2022-11-17T19:55:34.835Z,17.60
2022-11-17T19:58:31.936Z,19.00
2022-11-17T20:01:29.561Z,16.40
2022-11-17T20:04:26.978Z,14.40
2022-11-17T20:07:24.439Z,17.80
2022-11-17T20:10:22.053Z,17.80
2022-11-17T20:13:19.377Z,18.80
2022-11-17T20:16:19.052Z,20.60
2022-11-17T20:19:16.322Z,18.60
2022-11-17T20:22:17.492Z,18.80
2022-11-17T20:25:15.359Z,18.00
2022-11-17T20:28:12.138Z,20.00
2022-11-17T20:31:14.400Z,19.00
2022-11-17T20:34:12.195Z,19.80
2022-11-17T20:37:09.693Z,21.40
2022-11-17T20:40:07.749Z,19.00
2022-11-17T20:43:04.949Z,19.20
2022-11-17T20:46:02.653Z,18.40
2022-11-17T20:49:00.231Z,22.40
2022-11-17T20:51:57.255Z,18.60
2022-11-17T20:54:54.334Z,19.40
2022-11-17T20:57:51.209Z,21.00
2022-11-17T21:00:48.490Z,18.60
2022-11-17T21:03:46.130Z,17.80
2022-11-17T21:06:43.300Z,20.60
2022-11-17T21:09:40.241Z,18.40
2022-11-17T21:12:37.211Z,18.80
2022-11-17T21:15:34.338Z,17.40
2022-11-17T21:18:31.036Z,17.60
2022-11-17T21:21:28.035Z,15.20
2022-11-17T21:24:25.975Z,17.40
2022-11-17T21:27:23.063Z,17.00
2022-11-17T21:30:20.429Z,19.00
2022-11-17T21:33:17.083Z,20.80
2022-11-17T21:36:17.542Z,17.40
2022-11-17T21:39:18.680Z,18.40
2022-11-17T21:42:16.305Z,17.80
2022-11-17T21:45:13.324Z,20.60
2022-11-17T21:48:10.043Z,22.60
2022-11-17T21:51:08.513Z,20.00
2022-11-17T21:54:06.944Z,24.00
2022-11-17T21:57:04.287Z,21.00
2022-11-17T22:00:01.262Z,18.40
2022-11-17T22:02:58.138Z,18.00
2022-11-17T22:06:00.935Z,17.40
2022-11-17T22:08:59.037Z,17.60
2022-11-17T22:11:56.374Z,20.60
2022-11-17T22:14:53.489Z,15.20
2022-11-17T22:17:50.136Z,17.20
2022-11-17T22:20:51.505Z,17.80
2022-11-17T22:23:48.408Z,15.00
2022-11-17T22:26:45.551Z,18.20
2022-11-17T22:29:43.450Z,14.80
2022-11-17T22:32:45.159Z,18.40
2022-11-17T22:35:42.456Z,14.40
2022-11-17T22:38:39.125Z,18.40
2022-11-17T22:41:36.120Z,18.80
2022-11-17T22:44:33.150Z,19.20
2022-11-17T22:47:30.127Z,14.80
2022-11-17T22:50:27.040Z,18.00
2022-11-17T22:53:24.409Z,16.40
2022-11-17T22:56:21.235Z,18.00
2022-11-17T22:59:18.791Z,14.20
2022-11-17T23:02:16.078Z,17.20
2022-11-17T23:05:13.210Z,14.20
2022-11-17T23:08:10.346Z,20.60
2022-11-17T23:11:35.344Z,19.20
2022-11-17T23:14:25.389Z,14.60
2022-11-17T23:17:22.136Z,18.80
2022-11-17T23:20:19.046Z,16.40
2022-11-17T23:23:16.757Z,21.80
2022-11-17T23:26:14.025Z,18.00
2022-11-17T23:29:11.206Z,17.00
2022-11-17T23:32:08.653Z,15.00
2022-11-17T23:35:06.752Z,18.80
2022-11-17T23:38:04.117Z,16.40
2022-11-17T23:41:02.480Z,16.20
2022-11-17T23:43:59.690Z,18.40
2022-11-17T23:46:57.376Z,17.60
2022-11-17T23:49:54.324Z,14.40
2022-11-17T23:52:51.347Z,14.60
2022-11-17T23:55:57.429Z,16.80
2022-11-17T23:58:54.149Z,20.40
